Date,TemperatureHighF,TemperatureAvgF,TemperatureLowF,DewpointHighF,DewpointAvgF,DewpointLowF,HumidityHigh,HumidityAvg,HumidityLow,PressureMaxIn,PressureMinIn,WindSpeedMaxMPH,WindSpeedAvgMPH,GustSpeedMaxMPH,PrecipitationSumIn
2013-1-1,45.9,43.1,40.1,45.9,37.8,12.8,100,85,30,30.04,29.92,4,0,4,0.29
2013-1-2,41.9,34.6,32.1,41.9,34.5,32.1,100,99,96,30.04,29.89,5,0,6,0.10
2013-1-3,33.1,30.4,25.9,32.9,29.0,16.0,100,95,61,30.19,30.00,3,0,3,0.00
2013-1-4,35.9,26.5,21.3,22.8,20.2,17.2,95,77,52,30.25,30.15,6,0,6,0.00
2013-1-5,48.4,33.1,20.3,29.2,20.5,14.8,90,63,26,30.25,30.12,4,0,4,0.00
2013-1-6,47.8,36.1,30.5,36.3,31.7,22.7,100,85,38,30.15,29.98,6,1,6,0.01
2013-1-7,46.6,33.5,24.4,28.2,23.7,18.2,96,70,37,30.27,30.12,5,0,5,0.00
2013-1-8,51.2,38.9,28.9,39.8,30.0,18.3,89,70,58,30.30,30.21,4,0,4,0.00
2013-1-9,55.7,51.0,42.2,51.9,48.0,37.9,96,89,78,30.42,30.27,3,0,3,0.00
2013-1-10,63.0,53.0,47.3,52.9,49.0,47.1,100,87,59,30.42,30.24,5,1,5,0.00
2013-1-11,58.8,54.6,48.5,56.9,53.8,48.5,100,97,88,30.25,30.09,5,1,5,0.18
2013-1-12,66.8,59.9,54.1,58.2,53.9,41.3,100,81,48,30.19,30.08,5,1,5,0.06
2013-1-13,63.8,59.1,55.4,55.8,50.6,47.4,100,73,65,30.12,30.03,10,1,10,0.08
2013-1-14,55.8,51.1,42.3,55.8,51.1,42.3,100,100,100,30.16,30.03,6,1,6,1.67
2013-1-15,53.5,49.5,43.2,53.5,49.5,43.2,100,100,100,30.10,29.94,4,1,4,2.17
2013-1-16,58.2,51.6,47.5,55.7,50.4,47.0,100,96,71,30.01,29.90,5,1,5,0.43
2013-1-17,48.7,38.0,27.3,48.7,38.0,27.3,100,100,100,30.15,29.80,5,1,5,1.43
2013-1-18,34.8,28.2,22.5,31.3,25.5,18.3,100,90,64,30.36,30.15,0,0,0,0.01
2013-1-19,46.2,34.7,26.1,27.5,22.4,14.5,90,64,31,30.31,30.08,6,1,6,0.01
2013-1-20,50.3,38.5,33.1,31.3,24.9,18.3,73,58,35,30.09,30.01,5,1,6,0.35
2013-1-21,45.1,34.5,27.8,27.4,20.5,11.2,85,57,35,30.04,29.93,7,1,7,0.00
2013-1-22,29.2,21.6,14.1,12.9,6.3,-1.0,67,52,31,30.08,29.93,5,1,5,0.00
2013-1-23,39.9,29.6,18.0,24.4,16.6,3.0,75,58,48,30.14,29.98,6,1,8,0.00
2013-1-24,38.0,28.4,20.0,27.9,14.4,2.6,71,56,32,30.22,29.94,11,1,11,0.00
2013-1-25,43.5,30.7,17.6,39.9,25.6,7.5,100,81,61,30.21,29.92,16,2,16,0.22
2013-1-26,42.5,32.9,27.3,35.6,26.3,19.0,100,79,39,30.21,30.01,4,1,4,0.00
2013-1-27,46.0,34.3,25.1,32.9,27.0,20.3,92,75,53,30.31,30.21,3,1,3,0.00
2013-1-28,56.9,46.1,32.5,46.5,38.9,28.1,94,76,59,30.29,30.19,11,1,11,0.00
2013-1-29,63.4,54.5,46.4,55.6,46.7,38.7,99,75,58,30.20,29.98,8,1,8,0.02
2013-1-30,63.9,54.0,37.5,57.4,50.5,34.7,100,88,71,29.98,29.52,12,2,14,2.29
2013-1-31,37.5,29.6,23.6,34.7,19.6,13.7,98,67,45,29.92,29.57,13,4,13,0.00
2013-2-1,34.7,22.6,14.4,27.8,11.5,-1.0,100,63,39,30.17,29.85,19,2,19,0.00
2013-2-2,36.1,24.8,14.6,31.0,21.3,8.4,100,86,48,30.17,29.93,10,1,10,0.01
2013-2-3,35.5,29.9,22.9,29.4,23.0,19.0,100,76,54,29.97,29.84,12,3,12,0.03
2013-2-4,45.0,32.6,19.5,26.7,21.5,17.3,92,66,43,30.00,29.89,7,1,7,0.00
2013-2-5,48.5,41.1,34.3,37.4,28.8,20.1,87,62,45,29.96,29.85,8,2,8,0.00
2013-2-6,53.9,41.1,32.4,32.8,26.8,20.8,88,59,28,30.14,29.96,4,1,4,0.00
2013-2-7,41.2,38.4,36.0,38.7,31.5,23.8,100,78,52,30.14,29.92,2,0,2,0.27
2013-2-8,44.5,37.4,27.8,44.2,33.8,25.9,100,87,54,30.09,29.85,8,2,8,0.02
2013-2-9,51.8,36.4,22.9,26.2,17.3,3.3,94,53,17,30.21,30.07,7,1,7,0.00
2013-2-10,50.3,42.0,36.0,47.0,26.1,7.5,100,58,18,30.23,30.03,8,1,8,0.49
2013-2-11,52.9,47.2,40.0,51.9,40.5,24.1,100,80,44,30.05,29.98,8,2,9,0.17
2013-2-12,47.7,38.8,32.9,35.5,25.1,15.4,100,61,29,30.08,29.85,6,1,6,0.25
2013-2-13,48.2,37.1,28.9,46.3,34.3,27.7,100,90,64,29.85,29.63,11,2,11,0.14
2013-2-14,47.2,35.7,27.6,28.2,26.2,20.8,96,71,36,29.98,29.85,6,1,6,0.00
2013-2-15,48.0,37.0,27.6,34.5,28.3,25.4,100,73,43,30.02,29.91,8,1,8,0.00
2013-2-16,27.6,23.1,16.1,25.5,17.9,3.7,94,80,53,29.95,29.78,7,2,8,0.00
2013-2-17,30.1,21.7,14.5,10.4,5.1,0.0,72,49,29,30.10,29.88,10,2,11,0.01
2013-2-18,49.6,35.7,19.2,27.0,20.1,10.0,83,54,33,30.18,30.02,6,1,6,0.00
2013-2-19,43.2,35.6,29.1,37.8,25.2,7.5,100,69,37,30.03,29.85,12,2,12,0.18
2013-2-20,40.5,29.9,21.7,15.8,9.0,1.1,63,42,21,30.05,29.97,5,1,5,0.00
2013-2-21,58.3,34.6,21.9,36.0,15.3,8.6,100,50,18,30.15,26.81,5,0,5,0.36
2013-2-22,45.7,37.8,33.2,45.3,37.6,33.2,100,99,91,30.17,30.07,7,1,7,0.37
2013-2-23,51.4,45.4,37.4,51.4,45.4,37.4,100,100,100,30.10,29.93,12,1,12,0.17
2013-2-24,50.6,39.3,32.2,40.6,31.3,24.0,100,76,39,30.12,29.96,8,2,8,0.00
2013-2-25,45.7,35.9,29.0,35.9,29.1,25.0,100,77,52,30.13,30.00,6,1,7,0.00
2013-2-26,49.9,39.6,32.7,48.2,37.6,31.5,100,93,69,30.00,29.62,16,2,17,0.76
2013-2-27,48.6,37.8,30.2,34.4,30.1,26.1,94,75,46,29.86,29.74,18,5,19,0.00
2013-2-28,34.5,29.5,25.9,27.4,24.7,22.8,94,82,67,29.95,29.79,26,4,21,0.00
2013-3-1,26.2,25.7,25.3,25.9,25.4,24.5,100,99,94,29.95,29.92,7,1,7,0.00
2013-3-6,21.7,21.6,21.6,19.2,19.1,19.0,90,89,89,29.83,29.83,12,5,12,0.00
2013-4-24,65.1,57.5,46.0,63.3,54.0,46.0,100,90,59,30.18,26.87,7,1,7,0.13
2013-4-25,60.7,47.4,36.1,46.0,33.3,21.8,100,66,23,30.36,30.17,6,1,6,0.00
2013-4-26,65.5,50.5,35.2,41.6,34.5,29.9,86,57,32,30.41,30.30,5,1,5,0.00
2013-4-27,52.3,48.2,45.0,49.2,45.9,40.3,100,93,65,30.40,30.24,10,0,10,0.84
2013-4-28,50.4,47.6,45.8,50.3,47.6,45.8,100,100,100,30.25,30.03,14,1,14,1.61
2013-4-29,70.2,56.2,47.5,55.7,49.6,40.9,100,82,36,30.10,30.01,8,1,9,0.01
2013-4-30,71.6,58.0,48.1,57.0,52.5,48.1,100,84,48,30.23,30.06,11,1,12,0.00
2013-5-1,64.3,55.8,49.0,54.3,51.5,48.9,100,86,60,30.31,30.22,8,1,8,0.00
2013-5-2,61.9,53.9,50.5,58.0,52.5,50.1,100,95,80,30.31,30.26,7,0,7,0.06
2013-5-3,60.2,51.4,47.9,53.1,50.0,46.5,100,96,65,30.26,30.11,10,1,10,0.21
2013-5-4,48.0,45.4,41.4,48.0,45.4,41.3,100,100,100,30.11,29.98,11,0,11,0.93
2013-5-5,47.4,45.5,44.2,47.4,45.5,44.2,100,100,100,30.01,29.87,5,0,5,2.81
2013-5-6,61.2,50.1,43.3,50.1,43.7,34.6,100,82,42,29.97,29.83,14,2,14,0.08
2013-5-7,63.1,49.8,41.2,49.7,44.6,40.3,100,84,46,30.03,29.94,8,1,8,0.00
2013-5-8,61.9,53.9,46.4,54.9,50.9,46.4,100,90,69,30.15,30.00,10,1,10,0.02
2013-5-9,72.8,58.8,46.7,57.2,51.4,46.7,100,79,45,30.20,30.11,8,1,8,0.00
2013-5-10,72.1,60.8,50.8,59.0,54.8,50.8,100,82,52,30.21,30.07,8,1,9,0.00
2013-5-11,68.2,58.5,52.6,61.4,56.3,52.6,100,93,65,30.10,29.97,8,2,9,0.11
2013-5-12,57.2,50.3,42.2,52.9,40.9,31.1,100,73,42,30.14,30.01,11,2,12,0.00
2013-5-13,57.1,46.5,37.0,34.5,29.6,23.4,80,53,29,30.24,30.13,11,2,12,0.00
2013-5-14,71.5,55.0,35.9,49.4,40.0,29.4,93,60,35,30.27,30.17,10,1,10,0.00
2013-5-15,81.5,68.7,58.0,55.5,50.7,44.8,77,54,30,30.24,30.12,10,2,11,0.00
2013-5-16,76.2,65.4,57.4,56.0,51.4,42.9,83,62,34,30.18,30.10,6,1,7,0.00
2013-5-17,76.4,63.6,53.9,61.5,55.3,46.9,100,77,44,30.22,30.14,8,1,9,0.00
2013-5-18,65.8,60.9,56.7,64.8,60.0,54.6,100,97,79,30.20,30.15,5,0,5,0.38
2013-5-19,71.5,62.2,57.8,68.5,61.9,57.8,100,99,83,30.20,30.13,5,0,6,0.20
2013-5-20,78.7,64.9,54.8,68.6,61.4,54.8,100,89,64,30.22,30.15,6,1,7,0.00
2013-5-21,78.1,64.9,58.6,67.8,62.6,58.6,100,93,59,30.19,30.09,15,1,15,0.01
2013-5-22,75.0,63.5,57.5,71.2,62.1,57.5,100,95,67,30.14,30.01,8,1,8,0.38
2013-5-23,72.6,62.4,56.1,64.2,57.3,52.8,100,85,52,30.08,30.01,8,1,8,0.11
2013-5-24,59.4,53.9,49.1,55.3,44.0,33.2,100,72,39,30.30,30.07,18,4,18,0.00
2013-5-25,70.9,54.2,40.0,43.3,37.2,26.9,100,58,22,30.37,30.27,10,1,10,0.00
2013-5-26,69.3,55.7,45.6,51.5,45.7,32.9,100,71,41,30.35,30.26,6,1,7,0.03
2013-5-27,77.9,61.6,48.3,63.4,54.1,48.3,100,79,47,30.32,30.24,6,1,6,0.00
2013-5-28,79.9,66.6,58.6,62.3,57.3,47.8,95,74,35,30.32,30.24,7,1,7,0.00
2013-5-29,79.1,67.1,56.3,65.8,58.2,52.8,100,76,43,30.33,30.25,8,1,9,0.00
2013-5-30,79.6,69.2,57.0,64.4,59.1,53.5,100,72,44,30.37,30.26,14,1,14,0.00
2013-5-31,78.6,67.4,58.6,62.7,59.4,55.9,100,77,48,30.32,30.23,8,1,8,0.00
2013-6-1,80.3,69.0,61.7,63.8,60.7,54.1,100,77,42,30.25,30.15,17,1,17,0.00
2013-6-2,67.0,63.2,60.4,67.0,63.2,60.4,100,100,98,30.19,30.04,6,0,6,0.62
2013-6-3,76.1,64.0,58.1,66.0,61.3,58.1,100,92,61,30.12,30.03,7,1,7,0.00
2013-6-4,76.3,64.2,53.6,66.9,60.2,53.6,100,88,55,30.19,30.10,7,1,7,0.00
2013-6-5,74.4,64.5,58.3,70.2,63.2,58.3,100,95,75,30.20,30.07,8,0,8,0.39
2013-6-6,72.0,63.1,57.2,68.9,62.6,57.2,100,98,81,30.11,29.93,6,0,6,0.07
2013-6-7,76.4,64.1,59.7,71.5,63.4,59.7,100,98,69,30.00,29.86,6,0,6,1.34
2013-6-8,76.7,64.8,57.3,65.9,60.3,53.2,100,88,47,30.23,29.99,6,1,6,0.14
2013-6-9,72.8,63.7,57.6,72.0,63.4,57.6,100,99,89,30.26,30.16,8,0,8,0.73
2013-6-10,72.2,64.7,58.5,66.2,61.2,55.2,100,90,59,30.16,30.06,12,1,12,0.48
2013-6-11,78.7,67.5,59.4,65.2,61.3,56.1,100,83,53,30.18,30.09,12,1,12,0.13
2013-6-12,84.1,70.6,58.8,72.6,65.2,56.6,100,84,61,30.21,30.12,8,1,9,0.00
2013-6-13,79.4,69.3,63.0,68.3,64.0,58.8,100,84,60,30.12,29.93,15,2,15,0.23
2013-6-14,71.8,62.7,54.4,63.5,56.1,51.6,100,81,56,30.20,30.00,11,2,13,0.01
2013-6-15,74.7,54.8,51.5,62.5,54.2,51.4,100,98,59,30.25,30.18,2,0,2,0.00
2013-6-16,80.1,73.5,58.0,65.0,61.7,56.5,100,68,50,30.26,30.17,5,1,6,0.00
2013-6-17,77.4,67.7,62.6,72.1,66.0,62.6,100,95,69,30.20,30.10,6,0,6,0.16
2013-6-18,73.3,64.6,60.4,67.3,63.7,60.4,100,97,78,30.11,29.99,11,1,11,0.10
2013-6-19,77.5,64.5,55.2,66.5,61.1,55.2,100,90,57,30.25,30.08,4,0,5,0.01
2013-6-20,77.6,64.4,55.7,67.1,61.5,55.6,100,91,61,30.35,30.23,8,1,9,0.00
2013-6-21,78.4,66.0,57.4,65.6,61.1,57.4,100,86,55,30.37,30.30,7,1,7,0.00
2013-6-22,79.1,65.1,53.7,64.4,59.0,53.7,100,83,49,30.36,30.25,6,1,6,0.00
2013-6-23,75.4,64.6,56.0,68.1,62.7,56.0,100,93,69,30.34,30.26,6,0,6,0.00
2013-6-24,80.6,69.0,59.3,69.4,64.1,59.3,100,86,52,30.35,30.24,7,1,7,0.03
2013-6-25,81.1,67.7,60.3,72.5,65.1,60.3,100,92,54,30.30,30.18,7,1,8,0.71
2013-6-26,79.9,68.3,60.5,72.0,66.0,60.5,100,93,65,30.21,30.09,6,1,7,0.01
2013-6-27,79.9,70.0,61.0,70.2,66.4,60.9,100,89,67,30.13,29.96,12,2,12,0.71
2013-6-28,78.4,68.3,61.4,69.6,64.8,61.4,100,90,63,30.02,29.85,8,1,8,0.04
2013-6-29,78.6,67.2,58.1,65.4,59.0,50.9,100,78,39,29.90,29.84,7,1,7,0.00
2013-6-30,77.7,64.1,55.4,66.2,60.5,55.4,100,89,52,29.97,29.88,8,1,8,0.00
2013-7-1,73.8,63.7,58.7,69.8,63.2,58.7,100,98,82,30.09,29.95,7,0,8,0.45
2013-7-2,78.1,66.5,59.9,70.1,63.7,59.9,100,92,59,30.24,30.08,8,1,8,0.14
2013-7-3,66.1,62.6,58.9,66.1,62.6,58.9,100,100,97,30.33,30.22,5,0,5,0.73
2013-7-4,67.6,62.3,58.9,67.6,62.3,58.9,100,100,100,30.33,30.26,4,0,5,0.49
2013-7-5,77.3,66.1,61.9,71.3,65.1,61.9,100,97,73,30.34,30.27,7,1,7,0.24
2013-7-6,75.6,66.9,62.0,72.2,66.0,62.0,100,97,79,30.32,30.25,7,1,8,0.05
2013-7-7,73.5,67.1,63.5,72.5,66.9,63.5,100,99,93,30.30,30.23,5,0,5,0.01
2013-7-8,79.6,68.7,63.1,73.0,67.5,63.1,100,96,69,30.34,29.97,5,0,5,0.01
2013-7-9,80.8,69.4,61.9,75.2,68.0,61.9,100,96,70,30.02,29.93,7,0,7,0.01
2013-7-10,82.6,69.0,63.5,76.3,68.1,63.5,100,97,72,29.99,29.83,6,0,7,0.01
2013-7-11,76.3,67.9,63.8,74.5,67.8,63.8,100,100,90,29.84,29.76,4,0,5,0.00
2013-7-12,75.5,67.0,60.4,71.6,66.2,60.4,100,97,82,29.84,29.76,6,0,7,0.01
2013-7-13,73.2,64.4,59.0,71.5,64.2,59.0,100,100,89,29.94,29.83,5,0,5,0.01
2013-7-14,67.7,65.0,62.8,67.7,65.0,62.8,100,100,100,30.09,29.93,10,0,10,0.00
2013-7-15,76.6,67.9,62.6,73.9,67.3,62.6,100,98,84,30.15,30.08,7,0,7,0.01
2013-7-16,83.2,71.0,63.1,75.6,68.8,63.1,100,93,61,30.17,30.10,5,0,6,0.01
2013-7-17,82.9,69.3,63.1,75.5,68.3,63.1,100,97,70,30.15,30.03,5,0,5,0.00
2013-7-18,81.9,68.3,60.3,77.3,67.6,60.3,100,98,79,30.09,29.94,7,0,7,0.01
2013-7-19,84.4,70.0,62.2,74.3,67.9,62.2,100,94,65,30.00,29.86,6,0,6,0.00
2013-7-20,75.2,68.3,63.3,74.1,68.1,63.3,100,99,93,29.92,29.81,7,1,8,0.01
2013-7-21,77.9,67.2,63.0,76.6,66.8,63.0,100,99,81,29.88,29.82,4,0,5,0.00
2013-7-22,79.7,68.4,62.4,72.6,66.4,62.4,100,94,69,29.86,29.72,5,1,5,0.00
2013-7-23,80.2,67.8,61.9,72.6,66.1,61.9,100,95,68,29.78,29.69,6,1,6,0.45
2013-7-24,77.7,66.8,61.4,73.4,66.0,61.4,100,97,77,29.75,29.68,7,1,7,0.16
2013-7-25,78.6,67.0,59.7,73.2,64.4,59.5,100,92,57,29.89,29.74,5,1,5,0.01
2013-7-26,79.6,65.3,56.9,71.2,63.5,56.8,100,95,63,29.92,29.85,6,1,6,0.00
2013-7-27,75.8,66.8,62.7,72.2,66.3,62.7,100,98,82,29.87,29.76,5,0,5,0.39
2013-7-28,77.7,66.9,60.3,68.3,62.8,59.9,100,88,57,29.89,29.77,8,1,8,0.04
2013-7-29,80.4,64.9,56.3,67.6,61.0,56.3,100,89,53,30.03,29.88,6,1,6,0.00
2013-7-30,78.9,65.4,55.0,72.3,63.6,55.0,100,94,64,30.04,29.98,5,0,5,0.00
2013-7-31,69.4,65.3,61.7,69.4,65.3,61.7,100,100,100,30.01,29.82,4,0,4,0.14
2013-8-1,76.3,67.3,62.4,75.9,66.6,62.4,100,98,83,29.85,29.79,8,1,8,0.03
2013-8-2,80.3,67.6,60.4,72.5,65.1,59.6,100,93,53,29.90,29.81,6,0,6,0.00
2013-8-3,78.9,67.6,61.6,71.9,66.4,61.6,100,96,75,29.90,29.85,5,0,5,0.00
2013-8-4,75.3,67.1,61.3,70.8,65.6,61.3,100,95,74,29.91,29.85,7,1,8,0.00
2013-8-5,79.8,66.2,56.6,68.0,62.1,56.6,100,88,54,29.91,29.83,8,1,8,0.00
2013-8-6,80.4,68.2,62.6,72.7,66.7,62.5,100,95,73,29.89,29.81,5,0,6,0.25
2013-8-7,71.7,66.7,63.8,71.6,66.7,63.8,100,100,100,29.90,29.85,5,0,5,0.76
2013-8-8,78.0,68.8,62.6,76.6,68.6,62.6,100,99,90,29.91,29.86,5,0,5,0.01
2013-8-9,83.6,71.3,65.8,74.6,69.7,65.8,100,95,66,29.95,29.88,7,1,8,0.00
2013-8-10,81.3,70.9,64.9,75.1,70.0,64.9,100,97,71,29.99,29.93,6,1,6,0.00
2013-8-11,82.3,70.0,63.7,75.8,69.0,63.7,100,97,75,30.00,29.93,7,0,7,0.01
2013-8-12,82.4,69.3,62.7,76.2,68.6,62.7,100,98,73,29.97,29.86,6,0,7,0.01
2013-8-13,77.3,68.2,63.7,73.0,67.2,63.7,100,97,77,29.86,29.73,11,1,13,0.20
2013-8-14,72.1,63.5,58.8,65.4,62.0,58.8,100,95,72,29.89,29.77,5,0,5,0.00
2013-8-15,69.1,60.4,54.7,64.7,59.5,54.7,100,97,80,29.93,29.87,6,1,6,0.00
2013-8-16,57.5,57.2,57.0,57.5,57.2,57.0,100,100,100,29.93,29.92,0,0,0,0.00
2013-8-27,73.5,67.5,63.6,70.6,67.0,63.6,100,98,90,29.93,29.90,4,0,4,0.00
2013-8-28,80.8,68.4,60.7,73.0,67.1,60.7,100,96,72,29.93,29.85,6,1,7,0.00
2013-8-29,80.5,71.5,63.8,75.1,70.0,63.8,100,95,76,29.88,29.82,7,1,7,0.00
2013-8-30,81.9,70.3,64.5,75.5,69.1,64.5,100,96,63,29.90,29.81,6,0,6,0.00
2013-8-31,75.2,67.6,61.3,74.6,67.5,61.3,100,100,94,29.84,29.76,10,0,10,0.23
2013-9-1,80.0,68.2,64.0,73.8,67.4,64.0,100,98,74,29.80,29.71,10,1,10,0.48
2013-9-2,78.4,67.4,62.2,74.2,67.0,62.2,100,98,84,29.81,29.73,5,0,5,0.00
2013-9-3,75.5,65.7,58.6,70.4,64.5,58.5,100,96,79,29.87,29.74,8,1,8,0.11
2013-9-4,78.4,65.0,56.6,71.9,63.6,56.6,100,96,67,29.97,29.86,4,0,5,0.00
2013-9-5,78.4,65.0,57.4,68.1,62.6,57.4,100,93,62,30.00,29.94,5,1,5,0.00
2013-9-6,77.6,63.0,52.3,69.4,61.0,52.3,100,94,67,30.01,29.92,5,0,6,0.00
2013-9-7,79.0,64.4,54.4,69.6,62.6,54.4,100,94,69,29.95,29.87,4,0,5,0.00
2013-9-8,75.1,65.1,58.2,70.0,64.0,58.1,100,96,75,29.89,29.83,6,1,6,0.00
2013-9-9,78.8,65.6,59.5,72.7,65.0,59.5,100,98,75,30.00,29.88,5,0,5,0.00
2013-9-10,79.6,66.6,59.0,72.8,65.3,59.0,100,96,77,30.08,29.99,5,0,5,0.00
2013-9-11,78.9,66.7,58.4,73.1,65.6,58.3,100,96,76,30.08,29.96,6,0,6,0.00
2013-9-12,72.5,65.4,59.5,72.0,65.3,59.5,100,100,93,29.97,29.78,7,0,7,0.07
2013-9-13,69.3,60.5,53.6,65.0,58.6,53.2,100,94,73,29.78,29.71,10,1,10,0.07
2013-9-14,70.5,56.0,46.6,62.7,54.5,46.6,100,95,69,29.91,29.76,6,0,7,0.00
2013-9-15,73.5,58.9,50.6,65.0,57.1,50.6,100,95,62,29.99,29.91,6,0,6,0.00
2013-9-16,74.5,62.2,52.2,67.6,60.1,52.2,100,93,68,29.99,29.93,6,1,6,0.00
2013-9-17,67.3,60.7,57.1,63.0,59.5,57.1,100,96,79,30.06,29.98,6,0,6,0.00
2013-9-18,63.9,58.5,53.5,63.0,58.2,53.5,100,99,88,30.03,29.96,6,0,6,0.00
2013-9-19,72.5,61.6,54.3,69.0,60.9,54.3,100,97,83,29.99,29.91,6,0,6,0.00
2013-9-20,71.5,63.5,55.7,70.6,63.3,55.7,100,99,92,29.93,29.78,5,0,5,0.00
2013-9-21,65.3,61.0,57.3,64.5,61.0,57.3,100,100,95,29.78,29.57,7,1,7,1.26
2013-9-22,66.4,56.9,51.8,60.4,55.4,51.8,100,95,71,29.75,29.62,8,1,8,0.00
2013-9-23,71.7,56.7,46.8,64.2,55.3,46.8,100,96,66,29.85,29.75,6,0,6,0.00
2013-9-24,70.3,58.4,47.5,66.7,57.7,47.5,100,98,81,29.87,29.75,5,0,5,0.00
2013-9-25,60.5,58.2,56.1,60.5,58.2,56.1,100,100,100,29.76,29.67,2,0,2,1.46
2013-9-26,65.6,58.3,54.2,64.7,58.0,54.2,100,99,89,29.86,29.70,6,0,6,0.04
2013-9-27,68.9,56.6,50.3,64.1,55.8,50.3,100,97,76,29.96,29.86,5,0,5,0.00
2013-9-28,65.6,55.5,48.5,63.0,54.9,48.5,100,98,80,30.02,29.93,5,0,5,0.00
2013-9-29,66.7,55.7,50.6,60.5,55.0,50.6,100,98,70,29.95,29.83,4,0,5,0.00
2013-9-30,67.5,56.1,49.9,61.9,55.7,49.9,100,98,79,29.88,29.81,5,0,5,0.00
2013-10-1,71.3,57.8,48.6,64.3,56.3,48.6,100,96,65,29.96,29.87,5,0,5,0.00
2013-10-2,71.7,58.9,50.2,65.2,57.9,50.1,100,97,74,29.99,29.92,5,0,5,0.00
2013-10-3,70.7,60.9,55.2,68.0,60.6,55.1,100,99,88,29.96,29.89,4,0,4,0.00
2013-10-4,70.3,61.1,54.0,67.1,60.6,54.0,100,98,85,30.00,29.93,4,0,4,0.00
2013-10-5,73.3,62.2,53.6,69.8,61.3,53.6,100,97,85,29.98,29.88,7,0,7,0.00
2013-10-6,71.5,63.4,57.9,65.7,61.9,57.9,100,95,76,29.89,29.72,5,1,5,0.02
2013-10-7,61.4,55.2,48.1,61.3,55.0,48.1,100,99,85,29.85,29.64,10,1,10,0.94
2013-10-8,63.8,52.2,41.3,58.8,51.2,41.3,100,96,81,29.96,29.84,6,0,6,0.00
2013-10-9,68.0,53.4,44.4,61.1,52.4,44.4,100,97,71,29.98,29.91,7,1,7,0.00
2013-10-10,64.5,53.6,43.8,56.5,51.6,43.8,100,93,71,29.92,29.84,7,1,7,0.00
2013-10-11,66.8,55.3,45.8,57.9,52.7,45.8,100,92,60,29.87,29.80,8,1,8,0.00
2013-10-12,68.8,57.8,49.2,62.0,56.1,49.1,100,95,73,29.92,29.82,10,1,10,0.00
2013-10-13,64.3,59.5,56.2,63.8,59.4,56.2,100,100,94,30.01,29.91,6,1,6,0.05
2013-10-14,66.7,58.6,53.2,63.8,58.4,53.1,100,99,86,30.02,29.93,5,0,5,0.00
2013-10-15,66.3,57.3,51.9,63.4,56.8,51.9,100,98,84,29.97,29.84,5,0,5,0.00
2013-10-16,65.1,56.8,50.3,60.9,55.9,50.3,100,97,80,29.86,29.77,5,0,6,0.01
2013-10-17,65.5,58.7,52.3,65.0,58.6,52.3,100,99,90,29.78,29.67,8,1,8,0.08
2013-10-18,65.0,53.2,47.2,58.9,51.6,47.2,100,95,67,29.81,29.72,5,0,6,0.00
2013-10-19,60.9,51.8,45.5,53.8,47.0,37.3,100,86,43,29.76,29.67,11,1,11,0.00
2013-10-20,62.5,46.5,36.2,47.6,42.5,36.1,100,88,50,29.83,29.73,6,1,6,0.00
2013-10-21,64.6,49.6,38.6,51.1,45.3,38.6,100,87,48,29.87,29.77,6,1,6,0.00
2013-10-22,64.6,54.1,49.0,51.9,49.0,45.3,100,84,53,29.79,29.61,10,1,11,0.00
2013-10-23,49.5,43.3,31.8,46.4,36.8,27.7,100,79,51,29.77,29.54,14,3,14,0.00
2013-10-24,47.9,38.2,28.8,37.1,33.5,28.8,100,84,61,29.87,29.76,14,2,14,0.00
2013-10-25,41.4,32.9,26.4,35.0,27.6,23.4,100,82,55,30.04,29.87,10,2,10,0.00
2013-10-26,56.1,39.1,25.4,41.5,29.7,25.4,100,73,34,30.00,29.81,10,1,10,0.00
2013-10-27,58.9,50.6,43.4,51.8,47.3,41.6,100,89,69,29.89,29.80,7,1,7,0.00
2013-10-28,56.3,51.4,47.2,55.2,51.2,47.1,100,99,92,30.01,29.87,5,0,5,0.02
2013-10-29,63.8,53.5,47.4,53.4,49.0,46.8,100,86,55,30.08,29.99,7,1,7,0.00
2013-10-30,68.2,59.5,52.2,57.4,54.4,49.1,99,84,63,30.05,29.95,8,1,9,0.00
2013-10-31,63.7,59.7,55.8,61.1,55.9,51.6,100,88,72,29.96,29.60,14,1,14,0.01
2013-11-1,69.2,59.9,49.9,61.8,51.0,37.5,100,76,35,29.61,29.49,22,3,24,0.16
2013-11-2,53.7,45.9,40.9,45.8,41.4,37.6,100,84,60,29.78,29.57,12,2,13,0.02
2013-11-3,52.2,42.1,36.6,40.0,37.0,33.6,100,83,51,30.03,29.77,14,2,14,0.00
2013-11-4,54.4,41.3,33.2,39.2,35.5,33.2,100,81,50,30.14,30.03,6,1,6,0.00
2013-11-5,60.6,43.2,32.4,39.6,34.1,31.0,100,73,36,30.17,30.08,5,1,6,0.00
2013-11-6,63.4,52.7,42.0,54.8,48.5,32.8,100,86,67,30.10,29.88,10,1,10,0.00
2013-11-7,54.7,46.7,34.9,54.6,44.1,31.2,100,91,73,29.91,29.78,12,2,12,0.15
2013-11-8,46.6,36.8,31.7,31.9,24.1,16.0,91,62,31,30.01,29.91,14,3,16,0.00
2013-11-9,53.1,42.0,30.8,30.6,25.8,22.1,77,54,32,30.00,29.92,8,1,8,0.00
2013-11-10,59.5,47.6,39.9,38.2,30.2,22.0,70,51,34,30.00,29.93,12,2,13,0.00
2013-11-11,62.6,44.9,30.1,33.6,27.8,21.8,79,54,22,30.01,29.88,5,1,5,0.00
2013-11-12,46.4,35.4,19.8,38.4,27.3,15.4,100,74,50,30.10,29.83,22,4,23,0.00
2013-11-13,38.7,27.0,15.8,19.0,15.6,9.9,97,65,35,30.15,30.08,7,1,8,0.00
2013-11-14,57.0,37.1,24.1,22.6,17.7,11.9,72,48,22,30.09,29.97,5,1,5,0.00
2013-11-15,49.9,44.7,35.4,48.0,37.7,8.7,100,80,27,29.99,29.88,7,1,7,0.30
2013-11-16,61.2,51.5,43.8,56.5,50.9,43.8,100,98,81,29.96,29.88,6,1,7,0.02
2013-11-17,63.7,57.3,52.4,60.3,56.5,52.2,100,97,82,29.92,29.68,14,1,14,0.43
2013-11-18,63.2,50.2,39.8,63.2,44.6,31.0,100,82,51,29.81,29.66,14,3,16,0.16
2013-11-19,46.5,38.2,32.2,32.8,26.6,19.1,84,64,36,29.90,29.80,17,3,17,0.00
2013-11-20,48.6,36.4,29.8,33.3,29.2,26.6,93,76,45,30.06,29.88,6,1,6,0.00
2013-11-21,52.6,43.7,34.0,52.4,42.9,32.6,100,97,86,30.11,30.03,6,1,7,0.03
2013-11-22,61.6,54.7,45.5,60.8,54.4,45.5,100,99,90,30.07,29.91,6,2,7,0.01
2013-11-23,52.6,41.2,27.4,52.6,38.9,18.7,100,92,55,29.94,29.86,16,2,16,0.01
2013-11-24,28.7,22.0,16.1,24.9,13.5,6.7,91,71,41,30.07,29.92,15,2,15,0.00
2013-11-25,36.6,27.6,18.5,30.1,17.0,10.7,100,65,38,30.05,29.88,7,2,7,0.00
2013-11-26,41.4,38.8,29.0,41.3,38.8,28.9,100,100,100,29.88,29.42,12,1,12,2.35
2013-11-27,39.6,25.0,16.6,39.6,24.7,14.9,100,99,88,29.84,29.41,23,5,23,0.10
2013-11-28,40.7,27.6,14.1,30.6,21.0,14.1,100,78,54,30.07,29.84,10,1,10,0.04
2013-11-29,46.2,34.1,25.7,30.3,25.3,16.8,88,71,43,30.17,30.07,5,1,5,0.01
2013-11-30,43.5,33.6,25.5,31.5,28.2,25.0,100,81,59,30.17,29.98,4,1,5,0.00
2013-12-1,53.9,41.9,32.7,39.7,34.8,26.3,97,78,39,29.98,29.72,11,2,12,0.00
2013-12-2,49.4,41.3,33.0,44.7,39.9,32.6,100,95,81,29.72,29.55,6,1,6,0.00
2013-12-3,54.2,47.2,41.8,50.8,46.5,41.8,100,98,86,29.67,29.57,6,1,6,0.00
2013-12-4,63.1,53.5,44.4,56.7,50.2,44.3,100,89,68,29.81,29.66,14,2,14,0.00
2013-12-5,66.4,59.5,54.1,61.9,58.3,53.1,100,96,79,29.85,29.77,12,1,12,0.30
2013-12-6,68.5,62.2,49.0,64.8,59.9,48.9,100,92,74,29.83,29.71,32,2,32,0.73
2013-12-7,51.1,41.6,37.0,51.0,41.6,36.8,100,100,99,30.01,29.78,12,2,13,0.02
2013-12-8,50.0,38.8,35.6,50.0,38.8,35.6,100,100,100,29.99,29.82,15,2,15,0.63
2013-12-9,57.2,51.5,43.1,57.2,51.5,43.1,100,100,100,29.83,29.73,12,2,13,0.61
2013-12-10,46.1,35.9,24.2,46.0,34.6,21.3,100,95,76,29.97,29.64,18,2,18,0.56
2013-12-11,43.2,30.6,19.5,27.4,21.4,15.7,100,72,40,30.01,29.95,7,1,7,0.00
2013-12-12,34.3,26.9,20.8,23.9,16.3,7.2,100,67,35,30.03,29.96,6,2,6,0.00
2013-12-13,43.4,32.6,19.8,27.1,20.8,13.3,85,62,43,29.98,29.87,4,1,4,0.00
2013-12-14,48.7,40.8,34.0,48.3,38.0,21.5,100,90,53,29.87,29.50,12,1,12,0.56
2013-12-15,48.1,32.3,24.6,47.3,32.2,24.6,100,100,95,29.79,29.49,17,2,17,0.01
2013-12-16,45.7,35.9,24.8,32.8,28.3,24.8,100,76,46,29.84,29.77,17,2,17,0.00
2013-12-17,50.7,42.0,33.7,34.8,31.0,23.0,85,65,49,29.84,29.69,20,4,23,0.00
2013-12-18,41.8,32.0,23.5,24.0,18.4,10.7,91,60,32,29.95,29.80,11,1,11,0.00
2013-12-19,58.8,47.7,33.5,30.2,24.2,16.3,59,40,30,29.98,29.89,7,1,7,0.00
2013-12-20,57.9,49.6,43.0,52.6,33.6,20.8,100,55,38,29.92,29.84,7,2,7,0.00
2013-12-21,63.7,57.5,52.4,63.5,57.3,51.8,100,99,91,29.86,29.69,12,2,14,0.26
2013-12-22,65.5,56.2,50.7,63.9,55.0,50.7,100,96,74,29.83,29.68,22,2,24,3.35
2013-12-23,50.7,41.8,29.6,50.7,41.8,29.5,100,100,100,29.92,29.76,10,2,10,0.14
2013-12-24,29.7,24.0,16.8,29.7,23.2,16.3,100,97,83,30.02,29.89,10,2,10,0.00
2013-12-25,36.4,23.9,14.8,25.5,20.2,14.8,100,87,60,30.01,29.93,5,1,6,0.00
2013-12-26,41.2,31.2,25.1,30.5,25.7,22.0,98,80,60,30.00,29.91,10,1,10,0.00
2013-12-27,44.4,32.3,23.4,31.4,26.5,23.4,100,81,52,30.08,29.97,5,1,5,0.00
2013-12-28,46.4,35.0,27.1,43.9,31.0,21.8,100,86,44,30.06,29.73,5,0,5,0.33
2013-12-29,49.1,41.3,34.8,48.6,41.2,34.8,100,99,88,29.72,29.53,8,2,8,0.20
2013-12-30,42.7,36.0,31.3,41.0,35.6,31.3,100,99,84,29.83,29.70,8,2,8,0.00
2013-12-31,35.7,30.2,25.7,31.7,25.2,19.1,100,83,54,30.00,29.80,12,1,12,0.00
2014-1-1,42.5,33.9,26.0,28.9,23.8,19.1,86,67,46,29.99,29.77,5,1,5,0.00
2014-1-2,45.8,36.3,14.8,45.8,35.5,13.2,100,97,78,29.78,29.41,18,3,19,0.28